Market Center, South Carolina
Current Conditions -  °F | °C
As of 10:53 AM on Saturday 25 Oct 2014 (Local Time) from KCUB Reporting Station
Clear Clear  
Wind Chill: 63°   Ceiling: Unl
Heat Index: 63°   Visibility: 10mi
Dew Point: 43°   Wind: 3mph
Humidity: 48%   Direction: 90°E
Pressure: 30.06"   Gusts: NA
Location:  33.9841°N, 81.0264°W
Report Text: KCUB 251453Z AUTO 09003KT 10SM CLR 17/06 A3006 RMK AO2 SLP179 T01720061 50006
Loading
Personal Weather Stations






























Interactive Weather Map
Tropical Storm Tracking
New forecast layout! Learn more

10-Day Weather Forecast

Advertisements
Track Severe Weather on mobile